createdAt,value
2017-03-29T00:00:34.003Z,1008.50
2017-03-29T00:00:55.692Z,1008.56
2017-03-29T00:01:17.393Z,1008.39
2017-03-29T00:03:00.692Z,1008.65
2017-03-29T00:03:22.475Z,1008.55
2017-03-29T00:04:22.007Z,1008.48
2017-03-29T00:05:41.454Z,1008.24
2017-03-29T00:06:39.954Z,1008.43
2017-03-29T00:07:01.660Z,1008.36
2017-03-29T00:07:28.138Z,1008.43
2017-03-29T00:07:49.919Z,1008.34
2017-03-29T00:08:11.639Z,1008.46
2017-03-29T00:08:43.434Z,1008.78
2017-03-29T00:09:16.015Z,1008.46
2017-03-29T00:09:41.867Z,1008.21
2017-03-29T00:10:03.566Z,1008.27
2017-03-29T00:10:26.281Z,1008.37
2017-03-29T00:10:52.758Z,1008.68
2017-03-29T00:11:55.334Z,1008.68
2017-03-29T00:12:17.136Z,1008.37
2017-03-29T00:12:38.842Z,1008.54
2017-03-29T00:13:00.552Z,1008.23
2017-03-29T00:13:22.249Z,1008.44
2017-03-29T00:13:44.044Z,1008.21
2017-03-29T00:14:05.759Z,1008.20
2017-03-29T00:14:32.221Z,1008.56
2017-03-29T00:14:53.927Z,1008.47
2017-03-29T00:15:15.712Z,1008.68
2017-03-29T00:15:42.190Z,1008.31
2017-03-29T00:16:03.993Z,1008.27
2017-03-29T00:16:25.771Z,1008.28
2017-03-29T00:16:47.470Z,1008.32
2017-03-29T00:17:13.967Z,1008.34
2017-03-29T00:17:35.763Z,1008.28
2017-03-29T00:17:57.473Z,1008.60
2017-03-29T00:18:50.503Z,1008.27
2017-03-29T00:19:12.207Z,1008.28
2017-03-29T00:19:33.938Z,1008.44
2017-03-29T00:20:36.543Z,1008.53
2017-03-29T00:20:58.245Z,1008.36
2017-03-29T00:21:19.951Z,1008.34
2017-03-29T00:21:41.668Z,1008.48
2017-03-29T00:22:03.385Z,1008.53
2017-03-29T00:22:25.096Z,1008.38
2017-03-29T00:22:46.788Z,1008.57
2017-03-29T00:23:08.478Z,1008.56
2017-03-29T00:23:30.261Z,1008.52
2017-03-29T00:23:56.754Z,1008.58
2017-03-29T00:24:18.461Z,1008.52
2017-03-29T00:24:40.268Z,1008.58
2017-03-29T00:25:01.962Z,1008.62
2017-03-29T00:25:23.670Z,1008.60
2017-03-29T00:26:30.953Z,1008.30
2017-03-29T00:26:52.645Z,1008.44
2017-03-29T00:27:19.129Z,1008.70
2017-03-29T00:27:40.908Z,1008.48
2017-03-29T00:28:48.192Z,1008.26
2017-03-29T00:29:10.005Z,1008.57
2017-03-29T00:29:31.700Z,1008.45
2017-03-29T00:29:53.412Z,1008.50
2017-03-29T00:30:15.228Z,1008.79
2017-03-29T00:30:46.485Z,1008.71
2017-03-29T00:31:08.201Z,1008.59
2017-03-29T00:32:01.226Z,1008.52
2017-03-29T00:32:22.924Z,1008.59
2017-03-29T00:33:15.953Z,1008.54
2017-03-29T00:33:37.647Z,1008.52
2017-03-29T00:34:04.121Z,1008.50
2017-03-29T00:34:54.687Z,1008.56
2017-03-29T00:35:16.399Z,1008.89
2017-03-29T00:35:38.106Z,1008.79
2017-03-29T00:35:59.902Z,1008.96
2017-03-29T00:36:21.604Z,1008.76
2017-03-29T00:37:19.956Z,1008.57
2017-03-29T00:37:41.662Z,1008.44
2017-03-29T00:38:03.371Z,1008.44
2017-03-29T00:39:01.845Z,1008.69
2017-03-29T00:39:23.637Z,1008.70
2017-03-29T00:39:45.351Z,1008.78
2017-03-29T00:40:11.837Z,1008.64
2017-03-29T00:40:33.615Z,1008.62
2017-03-29T00:41:00.093Z,1008.74
2017-03-29T00:41:21.797Z,1008.67
2017-03-29T00:41:43.577Z,1008.77
2017-03-29T00:42:06.954Z,1008.66
2017-03-29T00:42:28.681Z,1008.46
2017-03-29T00:43:31.174Z,1008.80
2017-03-29T00:43:52.875Z,1008.81
2017-03-29T00:44:14.573Z,1008.63
2017-03-29T00:44:36.288Z,1008.70
2017-03-29T00:44:57.988Z,1008.80
2017-03-29T00:45:19.849Z,1008.47
2017-03-29T00:45:41.557Z,1008.80
2017-03-29T00:46:03.330Z,1008.59
2017-03-29T00:46:25.068Z,1008.52
2017-03-29T00:46:46.826Z,1008.56
2017-03-29T00:47:08.564Z,1008.63
2017-03-29T00:48:08.701Z,1008.58
2017-03-29T00:48:42.089Z,1008.68
2017-03-29T00:49:03.329Z,1008.77
2017-03-29T00:49:34.646Z,1008.92
2017-03-29T00:49:56.493Z,1008.61
2017-03-29T00:50:18.209Z,1008.66
2017-03-29T00:50:39.906Z,1008.66
2017-03-29T00:51:01.614Z,1008.68
2017-03-29T00:51:23.335Z,1008.63
2017-03-29T00:51:45.081Z,1008.51
2017-03-29T00:52:06.788Z,1008.78
2017-03-29T00:52:28.573Z,1008.64
2017-03-29T00:52:50.285Z,1008.69
2017-03-29T00:53:12.020Z,1008.92
2017-03-29T00:53:33.789Z,1008.63
2017-03-29T00:53:55.489Z,1008.81
2017-03-29T00:54:17.211Z,1008.69
2017-03-29T00:54:38.960Z,1008.81
2017-03-29T00:55:05.474Z,1008.73
2017-03-29T00:56:08.003Z,1008.73
2017-03-29T00:56:34.500Z,1008.42
2017-03-29T00:56:56.232Z,1008.64
2017-03-29T00:57:17.951Z,1008.69
2017-03-29T00:57:39.684Z,1008.55
2017-03-29T00:58:01.427Z,1008.67
2017-03-29T00:58:23.218Z,1008.58
2017-03-29T00:58:44.963Z,1008.62
2017-03-29T00:59:06.725Z,1008.90
2017-03-29T00:59:28.469Z,1008.81
2017-03-29T00:59:50.219Z,1008.60
2017-03-29T01:00:11.939Z,1008.56
2017-03-29T01:00:33.708Z,1008.76
2017-03-29T01:00:55.467Z,1008.57
2017-03-29T01:01:17.214Z,1008.65
2017-03-29T01:01:38.939Z,1008.57
2017-03-29T01:02:00.664Z,1008.58
2017-03-29T01:02:22.375Z,1008.58
2017-03-29T01:02:44.088Z,1008.53
2017-03-29T01:03:10.585Z,1008.78
2017-03-29T01:04:03.657Z,1008.63
2017-03-29T01:04:25.368Z,1008.57
2017-03-29T01:04:47.151Z,1008.90
2017-03-29T01:05:08.887Z,1008.57
2017-03-29T01:05:30.644Z,1008.73
2017-03-29T01:05:52.411Z,1008.79
2017-03-29T01:06:14.138Z,1008.76
2017-03-29T01:06:35.869Z,1008.63
2017-03-29T01:06:57.593Z,1008.71
2017-03-29T01:07:30.421Z,1008.64
2017-03-29T01:08:04.859Z,1008.74
2017-03-29T01:08:26.016Z,1008.70
2017-03-29T01:08:47.770Z,1008.75
2017-03-29T01:09:14.405Z,1008.82
2017-03-29T01:09:36.128Z,1008.65
2017-03-29T01:10:29.128Z,1008.62
2017-03-29T01:10:50.888Z,1008.72
2017-03-29T01:11:17.403Z,1008.80
2017-03-29T01:11:39.122Z,1008.75
2017-03-29T01:12:32.122Z,1008.85
2017-03-29T01:13:25.118Z,1008.75
2017-03-29T01:14:18.140Z,1008.78
2017-03-29T01:15:11.264Z,1008.83
2017-03-29T01:15:37.771Z,1008.78
2017-03-29T01:15:59.532Z,1008.83
2017-03-29T01:16:21.260Z,1008.71
2017-03-29T01:16:47.767Z,1008.83
2017-03-29T01:17:09.537Z,1008.67
2017-03-29T01:18:02.556Z,1008.75
2017-03-29T01:18:55.618Z,1008.69
2017-03-29T01:19:48.616Z,1008.66
2017-03-29T01:20:41.595Z,1008.86
2017-03-29T01:21:08.087Z,1008.94
2017-03-29T01:21:29.819Z,1008.87
2017-03-29T01:21:56.358Z,1008.82
2017-03-29T01:22:18.091Z,1008.72
2017-03-29T01:22:39.793Z,1008.83
2017-03-29T01:23:01.487Z,1008.87
2017-03-29T01:23:23.182Z,1008.87
2017-03-29T01:23:44.882Z,1008.81
2017-03-29T01:24:06.576Z,1008.68
2017-03-29T01:24:28.280Z,1008.44
2017-03-29T01:24:49.982Z,1008.65
2017-03-29T01:25:11.713Z,1008.70
2017-03-29T01:25:33.438Z,1008.90
2017-03-29T01:25:55.183Z,1008.75
2017-03-29T01:26:16.922Z,1008.71
2017-03-29T01:26:38.682Z,1008.83
2017-03-29T01:27:00.409Z,1008.93
2017-03-29T01:27:22.136Z,1008.88
2017-03-29T01:29:23.012Z,1008.78
2017-03-29T01:29:44.745Z,1008.87
2017-03-29T01:30:11.236Z,1008.77
2017-03-29T01:30:32.989Z,1008.92
2017-03-29T01:31:31.363Z,1008.77
2017-03-29T01:31:53.085Z,1008.90
2017-03-29T01:32:46.070Z,1008.64
2017-03-29T01:33:07.916Z,1008.74
2017-03-29T01:33:34.444Z,1008.79
2017-03-29T01:33:56.181Z,1009.16
2017-03-29T01:34:22.713Z,1008.90
2017-03-29T01:35:56.531Z,1008.83
2017-03-29T01:36:18.269Z,1009.29
2017-03-29T01:36:39.962Z,1008.81
2017-03-29T01:37:01.664Z,1008.60
2017-03-29T01:37:23.404Z,1008.92
2017-03-29T01:37:45.159Z,1008.79
2017-03-29T01:38:06.872Z,1008.88
2017-03-29T01:38:28.605Z,1008.60
2017-03-29T01:39:26.352Z,1008.66
2017-03-29T01:39:48.142Z,1008.67
2017-03-29T01:40:14.651Z,1008.84
2017-03-29T01:40:36.392Z,1008.78
2017-03-29T01:41:34.777Z,1008.75
2017-03-29T01:42:01.296Z,1008.74
2017-03-29T01:42:54.324Z,1009.00
2017-03-29T01:43:47.330Z,1008.65
2017-03-29T01:44:09.051Z,1008.68
2017-03-29T01:45:37.898Z,1008.75
2017-03-29T01:46:04.395Z,1008.83
2017-03-29T01:47:15.787Z,1008.94
2017-03-29T01:47:48.853Z,1008.86
2017-03-29T01:48:13.904Z,1008.88
2017-03-29T01:48:40.404Z,1008.75
2017-03-29T01:49:02.112Z,1008.71
2017-03-29T01:49:23.824Z,1008.85
2017-03-29T01:49:45.517Z,1008.77
2017-03-29T01:50:07.211Z,1008.72
2017-03-29T01:50:28.923Z,1008.71
2017-03-29T01:50:50.652Z,1008.75
2017-03-29T01:51:12.382Z,1009.02
2017-03-29T01:51:34.117Z,1009.02
2017-03-29T01:51:55.854Z,1008.61
2017-03-29T01:52:17.570Z,1008.71
2017-03-29T01:52:39.402Z,1008.73
2017-03-29T01:53:01.155Z,1008.71
2017-03-29T01:53:25.616Z,1008.88
2017-03-29T01:53:47.440Z,1008.79
2017-03-29T01:54:09.155Z,1008.81
2017-03-29T01:55:02.119Z,1008.60
2017-03-29T01:55:23.919Z,1008.88
2017-03-29T01:55:45.870Z,1008.79
2017-03-29T01:56:07.570Z,1008.81
2017-03-29T01:56:29.355Z,1008.92
2017-03-29T01:56:51.070Z,1008.85
2017-03-29T01:57:12.792Z,1008.90
2017-03-29T01:58:05.806Z,1008.76
2017-03-29T01:58:32.309Z,1008.79
2017-03-29T01:58:54.090Z,1008.99
2017-03-29T01:59:15.864Z,1008.79
2017-03-29T01:59:42.342Z,1008.72
2017-03-29T02:00:04.198Z,1008.92
2017-03-29T02:01:11.503Z,1008.85
2017-03-29T02:01:33.272Z,1008.95
2017-03-29T02:01:59.780Z,1008.76
2017-03-29T02:02:21.474Z,1009.25
2017-03-29T02:02:43.252Z,1009.02
2017-03-29T02:03:09.739Z,1009.07
2017-03-29T02:03:31.439Z,1008.83
2017-03-29T02:03:53.244Z,1008.95
2017-03-29T02:04:46.194Z,1009.25
2017-03-29T02:05:07.969Z,1009.20
2017-03-29T02:05:34.448Z,1009.05
2017-03-29T02:05:56.136Z,1008.83
2017-03-29T02:06:54.682Z,1008.74
2017-03-29T02:07:16.370Z,1008.96
2017-03-29T02:08:14.176Z,1008.97
2017-03-29T02:08:35.878Z,1008.81
2017-03-29T02:08:57.594Z,1008.84
2017-03-29T02:09:56.094Z,1009.16
2017-03-29T02:10:22.616Z,1008.91
2017-03-29T02:10:44.322Z,1008.89
2017-03-29T02:11:06.108Z,1008.95
2017-03-29T02:11:27.807Z,1009.03
2017-03-29T02:11:49.567Z,1008.91
2017-03-29T02:12:16.249Z,1008.72
2017-03-29T02:12:42.752Z,1008.96
2017-03-29T02:13:04.439Z,1009.10
2017-03-29T02:13:30.918Z,1009.04
2017-03-29T02:13:52.691Z,1009.02
2017-03-29T02:14:14.402Z,1008.90
2017-03-29T02:15:07.422Z,1008.94
2017-03-29T02:16:00.453Z,1009.18
2017-03-29T02:16:53.451Z,1008.84
2017-03-29T02:17:20.061Z,1009.02
2017-03-29T02:18:12.947Z,1008.92
2017-03-29T02:19:05.967Z,1009.07
2017-03-29T02:20:04.368Z,1009.17
2017-03-29T02:20:30.864Z,1009.12
2017-03-29T02:20:52.564Z,1008.99
2017-03-29T02:21:14.317Z,1009.00
2017-03-29T02:21:36.021Z,1009.02
2017-03-29T02:22:02.550Z,1009.16
2017-03-29T02:22:24.325Z,1008.97
2017-03-29T02:22:46.019Z,1009.22
2017-03-29T02:23:44.336Z,1009.07
2017-03-29T02:24:06.040Z,1009.05
2017-03-29T02:24:27.743Z,1009.08
2017-03-29T02:25:35.039Z,1008.93
2017-03-29T02:25:56.715Z,1008.98
2017-03-29T02:27:04.362Z,1008.80
2017-03-29T02:27:26.062Z,1008.83
2017-03-29T02:27:47.825Z,1009.10
2017-03-29T02:28:40.784Z,1009.17
2017-03-29T02:29:07.388Z,1009.28
2017-03-29T02:29:29.025Z,1009.06
2017-03-29T02:29:55.510Z,1009.04
2017-03-29T02:30:17.205Z,1009.28
2017-03-29T02:30:38.982Z,1009.25
2017-03-29T02:31:00.690Z,1008.99
2017-03-29T02:31:22.399Z,1008.99
2017-03-29T02:31:44.107Z,1009.07
2017-03-29T02:32:15.904Z,1009.09
2017-03-29T02:32:53.406Z,1009.13
2017-03-29T02:33:15.198Z,1009.21
2017-03-29T02:33:37.991Z,1009.08
2017-03-29T02:34:04.499Z,1008.97
2017-03-29T02:34:30.976Z,1009.04
2017-03-29T02:34:52.716Z,1009.31
2017-03-29T02:35:14.414Z,1009.18
2017-03-29T02:35:40.905Z,1008.99
2017-03-29T02:36:02.586Z,1009.02
2017-03-29T02:36:29.193Z,1009.21
2017-03-29T02:36:50.831Z,1008.92
2017-03-29T02:37:12.533Z,1008.98
2017-03-29T02:37:34.281Z,1009.23
2017-03-29T02:37:56.062Z,1009.08
2017-03-29T02:38:22.559Z,1008.94
2017-03-29T02:38:44.228Z,1009.01
2017-03-29T02:39:37.235Z,1009.09
2017-03-29T02:40:30.253Z,1009.05
2017-03-29T02:41:23.206Z,1009.10
2017-03-29T02:41:44.977Z,1009.16
2017-03-29T02:42:06.680Z,1008.89
2017-03-29T02:42:28.412Z,1009.06
2017-03-29T02:42:55.009Z,1009.38
2017-03-29T02:43:16.661Z,1009.03
2017-03-29T02:43:38.387Z,1009.33
2017-03-29T02:44:31.450Z,1009.16
2017-03-29T02:44:57.945Z,1008.94
2017-03-29T02:45:19.643Z,1009.14
2017-03-29T02:45:41.416Z,1009.09
2017-03-29T02:46:07.916Z,1008.96
2017-03-29T02:46:29.602Z,1009.10
2017-03-29T02:47:28.137Z,1008.95
2017-03-29T02:47:49.833Z,1009.05
2017-03-29T02:48:11.533Z,1009.22
2017-03-29T02:49:04.561Z,1009.21
2017-03-29T02:49:57.594Z,1008.92
2017-03-29T02:50:50.567Z,1009.00
2017-03-29T02:51:12.359Z,1009.10
2017-03-29T02:51:34.060Z,1009.34
2017-03-29T02:52:00.549Z,1009.01
2017-03-29T02:52:27.080Z,1009.56
2017-03-29T02:52:53.589Z,1009.28
2017-03-29T02:53:15.266Z,1009.05
2017-03-29T02:54:08.308Z,1009.09
2017-03-29T02:55:01.347Z,1009.15
2017-03-29T02:55:25.669Z,1009.10
2017-03-29T02:55:47.366Z,1009.01
2017-03-29T02:56:45.843Z,1008.92
2017-03-29T02:57:38.802Z,1009.23
2017-03-29T02:58:00.553Z,1008.92
2017-03-29T02:58:22.281Z,1009.06
2017-03-29T02:59:24.795Z,1009.13
2017-03-29T02:59:51.295Z,1009.22
2017-03-29T03:00:12.967Z,1009.30
2017-03-29T03:00:34.771Z,1009.20
2017-03-29T03:00:57.489Z,1009.23
2017-03-29T03:01:23.983Z,1009.33
2017-03-29T03:01:45.762Z,1009.14
2017-03-29T03:02:12.245Z,1009.46
2017-03-29T03:02:33.951Z,1009.41
2017-03-29T03:02:55.733Z,1009.35
2017-03-29T03:03:22.222Z,1009.20
2017-03-29T03:03:43.925Z,1009.21
2017-03-29T03:04:05.624Z,1009.24
2017-03-29T03:04:27.400Z,1009.03
2017-03-29T03:05:25.754Z,1009.38
2017-03-29T03:05:47.528Z,1009.35
2017-03-29T03:06:40.606Z,1009.34
2017-03-29T03:07:02.398Z,1009.28
2017-03-29T03:08:09.681Z,1009.04
2017-03-29T03:08:36.260Z,1009.29
2017-03-29T03:08:57.962Z,1009.42
2017-03-29T03:09:19.659Z,1009.55
2017-03-29T03:10:22.249Z,1009.14
2017-03-29T03:10:43.960Z,1009.14
2017-03-29T03:11:05.675Z,1009.13
2017-03-29T03:11:27.379Z,1009.10
2017-03-29T03:11:49.170Z,1009.62
2017-03-29T03:12:10.864Z,1009.28
2017-03-29T03:12:32.579Z,1009.08
2017-03-29T03:12:54.275Z,1009.07
2017-03-29T03:13:16.076Z,1009.24
2017-03-29T03:13:37.814Z,1009.22
2017-03-29T03:13:59.480Z,1009.07
2017-03-29T03:14:25.999Z,1009.07
2017-03-29T03:14:47.762Z,1009.26
2017-03-29T03:15:09.472Z,1009.24
2017-03-29T03:15:31.181Z,1009.17
2017-03-29T03:15:53.043Z,1009.22
2017-03-29T03:16:55.584Z,1009.32
2017-03-29T03:17:17.391Z,1009.18
2017-03-29T03:17:39.064Z,1009.14
2017-03-29T03:18:00.759Z,1009.33
2017-03-29T03:18:27.227Z,1009.13
2017-03-29T03:18:49.018Z,1009.55
2017-03-29T03:19:42.036Z,1009.23
2017-03-29T03:20:35.010Z,1009.40
2017-03-29T03:21:28.035Z,1009.47
2017-03-29T03:21:49.735Z,1009.16
2017-03-29T03:22:11.432Z,1009.22
2017-03-29T03:22:37.907Z,1009.04
2017-03-29T03:22:59.803Z,1009.13
2017-03-29T03:23:21.600Z,1009.53
2017-03-29T03:23:43.371Z,1009.14
2017-03-29T03:24:05.091Z,1008.98
2017-03-29T03:24:26.824Z,1009.29
2017-03-29T03:24:48.526Z,1009.13
2017-03-29T03:25:10.220Z,1009.11
2017-03-29T03:25:31.915Z,1009.19
2017-03-29T03:26:24.975Z,1009.20
2017-03-29T03:26:46.665Z,1009.32
2017-03-29T03:27:13.147Z,1009.29
2017-03-29T03:27:34.928Z,1009.47
2017-03-29T03:28:01.401Z,1009.16
2017-03-29T03:28:23.141Z,1009.30
2017-03-29T03:28:44.940Z,1009.33
2017-03-29T03:29:06.729Z,1009.39
2017-03-29T03:29:28.418Z,1009.18
2017-03-29T03:29:50.109Z,1009.18
2017-03-29T03:30:11.891Z,1009.42
2017-03-29T03:30:33.590Z,1009.09
2017-03-29T03:30:55.282Z,1008.98
2017-03-29T03:31:16.984Z,1009.12
2017-03-29T03:31:43.462Z,1009.07
2017-03-29T03:32:05.246Z,1009.45
2017-03-29T03:32:26.943Z,1009.29
2017-03-29T03:32:48.636Z,1009.31
2017-03-29T03:33:10.432Z,1009.31
2017-03-29T03:33:32.151Z,1009.14
2017-03-29T03:33:53.843Z,1009.01
2017-03-29T03:34:46.888Z,1009.29
2017-03-29T03:35:13.456Z,1009.31
2017-03-29T03:35:40.020Z,1009.22
2017-03-29T03:36:01.883Z,1009.49
2017-03-29T03:36:54.838Z,1009.04
2017-03-29T03:37:47.881Z,1009.10
2017-03-29T03:38:09.586Z,1009.09
2017-03-29T03:38:31.303Z,1009.33
2017-03-29T03:38:57.773Z,1009.61
2017-03-29T03:39:19.587Z,1009.45
2017-03-29T03:39:41.283Z,1009.32
2017-03-29T03:40:34.303Z,1008.98
2017-03-29T03:40:56.002Z,1009.07
2017-03-29T03:41:22.477Z,1009.13
2017-03-29T03:41:44.262Z,1009.15
2017-03-29T03:42:05.957Z,1009.20
2017-03-29T03:42:32.450Z,1009.17
2017-03-29T03:42:54.205Z,1009.38
2017-03-29T03:43:15.905Z,1009.57
2017-03-29T03:44:40.198Z,1008.98
2017-03-29T03:45:01.919Z,1009.36
2017-03-29T03:45:23.626Z,1009.32
2017-03-29T03:45:46.374Z,1009.36
2017-03-29T03:46:08.211Z,1009.32
2017-03-29T03:46:29.996Z,1009.31
2017-03-29T03:46:51.777Z,1009.25
2017-03-29T03:47:13.473Z,1009.31
2017-03-29T03:47:39.958Z,1009.14
2017-03-29T03:48:01.772Z,1009.33
2017-03-29T03:48:23.482Z,1009.41
2017-03-29T03:48:45.193Z,1009.28
2017-03-29T03:49:07.003Z,1009.19
2017-03-29T03:49:28.705Z,1009.23
2017-03-29T03:49:50.394Z,1009.55
2017-03-29T03:50:16.871Z,1009.50
2017-03-29T03:50:38.662Z,1009.09
2017-03-29T03:51:31.704Z,1009.33
2017-03-29T03:51:53.437Z,1009.09
2017-03-29T03:52:15.141Z,1009.06
2017-03-29T03:52:36.839Z,1009.33
2017-03-29T03:53:29.884Z,1009.29
2017-03-29T03:53:51.589Z,1009.58
2017-03-29T03:54:13.301Z,1009.27
2017-03-29T03:54:35.084Z,1009.23
2017-03-29T03:54:56.775Z,1009.03
2017-03-29T03:55:18.484Z,1009.15
2017-03-29T03:56:11.500Z,1009.17
2017-03-29T03:56:33.196Z,1009.33
2017-03-29T03:56:54.919Z,1009.33
2017-03-29T03:57:30.863Z,1009.31
2017-03-29T03:57:54.308Z,1009.68
2017-03-29T03:58:16.004Z,1009.27
2017-03-29T03:58:37.709Z,1009.48
2017-03-29T03:59:04.330Z,1009.40
2017-03-29T03:59:25.962Z,1009.36
2017-03-29T03:59:52.452Z,1009.33
2017-03-29T04:00:14.149Z,1009.30
2017-03-29T04:00:35.929Z,1009.29
2017-03-29T04:00:57.639Z,1009.35
2017-03-29T04:01:19.349Z,1009.34
2017-03-29T04:02:17.753Z,1009.43
2017-03-29T04:02:39.452Z,1009.42
2017-03-29T04:03:41.964Z,1009.30
2017-03-29T04:04:03.679Z,1009.59
2017-03-29T04:04:25.382Z,1009.43
2017-03-29T04:04:47.171Z,1009.54
2017-03-29T04:05:08.871Z,1009.29
2017-03-29T04:05:30.587Z,1009.30
2017-03-29T04:05:52.290Z,1009.35
2017-03-29T04:06:45.317Z,1009.55
2017-03-29T04:07:07.014Z,1009.56
2017-03-29T04:08:00.084Z,1009.51
2017-03-29T04:09:29.688Z,1009.32
2017-03-29T04:10:22.786Z,1009.47
2017-03-29T04:10:44.492Z,1009.41
2017-03-29T04:11:06.208Z,1009.58
2017-03-29T04:11:28.923Z,1009.46
2017-03-29T04:11:50.706Z,1009.57
2017-03-29T04:12:12.421Z,1009.52
2017-03-29T04:12:38.940Z,1009.45
2017-03-29T04:13:00.761Z,1009.68
2017-03-29T04:14:08.062Z,1009.64
2017-03-29T04:14:58.585Z,1009.32
2017-03-29T04:15:20.277Z,1009.45
2017-03-29T04:16:21.402Z,1009.50
2017-03-29T04:16:43.113Z,1009.55
2017-03-29T04:17:36.145Z,1009.83
2017-03-29T04:17:57.836Z,1009.66
2017-03-29T04:18:19.576Z,1009.40
2017-03-29T04:18:41.389Z,1009.44
2017-03-29T04:19:03.109Z,1009.48
2017-03-29T04:19:24.815Z,1009.43
2017-03-29T04:20:23.079Z,1009.61
2017-03-29T04:20:44.780Z,1009.47
2017-03-29T04:21:37.824Z,1009.51
2017-03-29T04:21:59.522Z,1009.38
2017-03-29T04:22:21.232Z,1009.49
2017-03-29T04:22:45.738Z,1009.70
2017-03-29T04:23:38.784Z,1009.49
2017-03-29T04:24:31.838Z,1009.53
2017-03-29T04:24:53.563Z,1009.69
2017-03-29T04:25:15.253Z,1009.59
2017-03-29T04:25:37.041Z,1009.56
2017-03-29T04:26:29.986Z,1009.58
2017-03-29T04:26:51.775Z,1009.67
2017-03-29T04:27:13.484Z,1009.54
2017-03-29T04:27:35.169Z,1009.55
2017-03-29T04:27:56.860Z,1009.79
2017-03-29T04:28:18.650Z,1009.69
2017-03-29T04:28:40.351Z,1009.51
2017-03-29T04:29:02.046Z,1009.59
2017-03-29T04:29:28.516Z,1009.58
2017-03-29T04:29:50.283Z,1009.47
2017-03-29T04:30:12.006Z,1009.63
2017-03-29T04:30:38.508Z,1009.44
2017-03-29T04:31:00.292Z,1009.81
2017-03-29T04:31:22.017Z,1009.62
2017-03-29T04:31:43.814Z,1009.49
2017-03-29T04:32:05.605Z,1009.39
2017-03-29T04:32:32.116Z,1009.68
2017-03-29T04:32:58.670Z,1009.58
2017-03-29T04:33:20.369Z,1009.47
2017-03-29T04:33:42.148Z,1009.56
2017-03-29T04:34:08.637Z,1009.55
2017-03-29T04:34:30.438Z,1009.58
2017-03-29T04:35:23.582Z,1009.58
2017-03-29T04:35:45.366Z,1009.78
2017-03-29T04:36:09.718Z,1009.70
2017-03-29T04:36:31.412Z,1009.66
2017-03-29T04:36:57.885Z,1009.77
2017-03-29T04:37:19.704Z,1009.56
2017-03-29T04:38:22.299Z,1009.35
2017-03-29T04:38:44.003Z,1009.69
2017-03-29T04:39:37.034Z,1009.48
2017-03-29T04:39:58.728Z,1009.59
2017-03-29T04:40:25.248Z,1009.51
2017-03-29T04:40:46.932Z,1009.46
2017-03-29T04:41:08.715Z,1009.43
2017-03-29T04:41:35.198Z,1009.63
2017-03-29T04:41:56.886Z,1009.93
2017-03-29T04:42:18.676Z,1010.21
2017-03-29T04:43:16.436Z,1009.96
2017-03-29T04:43:38.192Z,1009.56
2017-03-29T04:43:59.907Z,1009.64
2017-03-29T04:44:52.936Z,1009.46
2017-03-29T04:45:14.635Z,1009.53
2017-03-29T04:45:41.145Z,1009.47
2017-03-29T04:46:02.921Z,1009.84
2017-03-29T04:46:29.410Z,1009.61
2017-03-29T04:47:27.699Z,1009.79
2017-03-29T04:47:49.436Z,1009.48
2017-03-29T04:48:42.455Z,1009.63
2017-03-29T04:49:35.601Z,1009.69
2017-03-29T04:50:28.692Z,1009.77
2017-03-29T04:51:26.945Z,1009.57
2017-03-29T04:52:19.948Z,1009.90
2017-03-29T04:53:12.971Z,1009.40
2017-03-29T04:53:34.665Z,1009.37
2017-03-29T04:54:01.152Z,1009.70
2017-03-29T04:54:27.796Z,1010.00
2017-03-29T04:54:49.443Z,1009.47
2017-03-29T04:55:11.153Z,1009.69
2017-03-29T04:55:39.231Z,1009.78
2017-03-29T04:57:17.803Z,1009.81
2017-03-29T04:57:39.573Z,1009.72
2017-03-29T04:58:01.261Z,1009.55
2017-03-29T04:58:22.976Z,1009.49
2017-03-29T04:58:44.735Z,1009.55
2017-03-29T04:59:06.438Z,1009.65
2017-03-29T04:59:28.146Z,1009.74
2017-03-29T04:59:49.960Z,1009.64
2017-03-29T05:00:11.719Z,1009.73
2017-03-29T05:00:43.110Z,1009.86
2017-03-29T05:01:04.781Z,1009.54
2017-03-29T05:01:26.488Z,1009.65
2017-03-29T05:01:48.210Z,1009.85
2017-03-29T05:02:09.913Z,1009.58
2017-03-29T05:02:31.688Z,1009.54
2017-03-29T05:02:53.406Z,1009.59
2017-03-29T05:03:19.897Z,1009.82
2017-03-29T05:03:41.668Z,1010.00
2017-03-29T05:04:03.370Z,1009.58
2017-03-29T05:04:29.840Z,1009.48
2017-03-29T05:04:51.618Z,1009.66
2017-03-29T05:05:18.124Z,1009.63
2017-03-29T05:05:39.818Z,1010.01
2017-03-29T05:06:32.853Z,1009.70
2017-03-29T05:07:25.880Z,1009.66
2017-03-29T05:08:18.857Z,1009.49
2017-03-29T05:09:11.869Z,1009.88
2017-03-29T05:09:33.561Z,1009.94
2017-03-29T05:10:26.581Z,1009.71
2017-03-29T05:10:48.294Z,1009.77
2017-03-29T05:11:50.831Z,1009.70
2017-03-29T05:13:15.146Z,1009.77
2017-03-29T05:14:08.189Z,1009.70
2017-03-29T05:14:29.898Z,1009.89
2017-03-29T05:14:51.594Z,1009.70
2017-03-29T05:15:13.299Z,1009.77
2017-03-29T05:15:35.068Z,1010.01
2017-03-29T05:15:56.771Z,1009.84
2017-03-29T05:16:18.462Z,1009.78
2017-03-29T05:16:45.074Z,1009.92
2017-03-29T05:17:06.710Z,1009.96
2017-03-29T05:17:33.217Z,1009.70
2017-03-29T05:17:54.893Z,1009.87
2017-03-29T05:18:53.460Z,1009.83
2017-03-29T05:19:46.494Z,1009.78
2017-03-29T05:20:44.938Z,1009.84
2017-03-29T05:21:06.665Z,1009.98
2017-03-29T05:21:28.365Z,1009.71
2017-03-29T05:21:54.846Z,1009.76
2017-03-29T05:22:16.635Z,1009.75
2017-03-29T05:23:09.593Z,1009.95
2017-03-29T05:24:02.556Z,1009.67
2017-03-29T05:24:24.319Z,1009.92
2017-03-29T05:25:23.757Z,1009.97
2017-03-29T05:25:45.459Z,1009.83
2017-03-29T05:26:07.190Z,1009.93
2017-03-29T05:26:28.897Z,1009.68
2017-03-29T05:27:21.925Z,1009.68
2017-03-29T05:28:20.217Z,1009.86
2017-03-29T05:28:42.131Z,1009.79
2017-03-29T05:29:08.636Z,1009.99
2017-03-29T05:29:30.308Z,1009.89
2017-03-29T05:30:23.242Z,1010.05
2017-03-29T05:30:44.985Z,1009.77
2017-03-29T05:31:37.951Z,1009.90
2017-03-29T05:32:45.246Z,1009.87
2017-03-29T05:33:47.751Z,1009.79
2017-03-29T05:34:40.722Z,1009.93
2017-03-29T05:35:02.415Z,1009.98
2017-03-29T05:35:55.393Z,1009.88
2017-03-29T05:36:48.406Z,1009.90
2017-03-29T05:37:55.711Z,1009.64
2017-03-29T05:38:17.429Z,1010.09
2017-03-29T05:38:39.151Z,1009.80
2017-03-29T05:39:00.841Z,1009.65
2017-03-29T05:39:27.309Z,1009.88
2017-03-29T05:39:49.022Z,1010.02
2017-03-29T05:40:10.815Z,1009.83
2017-03-29T05:40:37.288Z,1009.98
2017-03-29T05:40:58.993Z,1009.84
2017-03-29T05:42:06.273Z,1009.64
2017-03-29T05:42:27.999Z,1009.83
2017-03-29T05:42:49.699Z,1009.87
2017-03-29T05:43:11.399Z,1009.82
2017-03-29T05:43:33.087Z,1009.79
2017-03-29T05:43:54.934Z,1009.82
2017-03-29T05:44:29.363Z,1009.91
2017-03-29T05:44:51.213Z,1009.93
2017-03-29T05:45:17.684Z,1009.83
2017-03-29T05:45:44.235Z,1009.94
2017-03-29T05:46:05.924Z,1009.74
2017-03-29T05:46:27.613Z,1009.74
2017-03-29T05:46:49.398Z,1009.84
2017-03-29T05:47:11.126Z,1010.07
2017-03-29T05:48:07.201Z,1009.75
2017-03-29T05:48:33.704Z,1009.95
2017-03-29T05:48:55.374Z,1009.83
2017-03-29T05:49:17.158Z,1009.87
2017-03-29T05:49:38.851Z,1009.91
2017-03-29T05:50:41.435Z,1010.02
2017-03-29T05:51:03.174Z,1009.87
2017-03-29T05:51:29.667Z,1009.88
2017-03-29T05:51:52.215Z,1009.79
2017-03-29T05:52:18.705Z,1009.77
2017-03-29T05:52:40.423Z,1009.83
2017-03-29T05:53:02.202Z,1009.87
2017-03-29T05:53:38.986Z,1009.91
2017-03-29T05:54:02.018Z,1009.75
2017-03-29T05:54:24.777Z,1009.93
2017-03-29T05:54:46.480Z,1009.85
2017-03-29T05:55:12.965Z,1009.89
2017-03-29T05:55:34.650Z,1009.70
2017-03-29T05:56:27.646Z,1009.97
2017-03-29T05:56:54.137Z,1009.90
2017-03-29T05:57:15.840Z,1009.82
2017-03-29T05:57:37.559Z,1009.79
2017-03-29T05:58:30.515Z,1009.68
2017-03-29T05:58:52.217Z,1009.77
2017-03-29T05:59:13.940Z,1009.91
2017-03-29T05:59:35.637Z,1009.91
2017-03-29T06:00:28.602Z,1009.86
2017-03-29T06:01:21.692Z,1010.01
2017-03-29T06:01:48.186Z,1009.77
2017-03-29T06:02:09.886Z,1009.99